OISF  Fasa  Airport

Fasa, Iran

Add Bookmark
ICAO OISF
IATA FAZ
Type Airport
Status Operational
Latitude
28° 53' 30" N
28.891800
Longitude
53° 43' 23" E
53.723301
Local (DST + 5) UTC (GMT + 4)
Aug 2, 2015 10:50 Aug 2, 2015 18:20
Sunrise-Sunset Local UTC
Begin Civil Twilight 05:49 01:19
Sunrise 06:15 01:45
Sunset 07:47 15:17
End Civil Twilight 08:12 15:42
VFR
VFR
MVFR
MVFR
IFR
IFR
LIFR
LIFR
Unknown
Unavailable

Current Weather

METAR Observed VFR
OISF 021150Z 36012KT CAVOK 37/M05 Q1010 Sun, Aug 2, 2015 @ 11:50 UTC
(6 Hours, 30 Minutes ago)
Visual Flight Rules
Wind Visibility Conditions
360° at 12 knots (22 kph) 10 km or more
  • No significant weather
Temperatures Readings Precipitation
Current Temp
37°C
99°F
Dewpoint
-5°C
23°F
Humidity 7%
Altimeter 29.82" Hg
Sea Level Pressure 1,010 mb
Field Elevation
1,383 m
4,537 ft
None Recorded
-
-

CheckWX.com is intended as a tool to help pilots better visualize weather data. It is not intended as a substitute for an official weather briefing obtained from a Flight Service Station. CheckWX.com does not meet the FAA requirements for an official pre-flight weather briefing. Therefore, it's important that pilots still call and obtain an official FSS pre-flight weather briefing.

© 2007-2015 CheckWX.com
18:20:36 UTC